sensor_id;sensor_type;location;lat;lon;timestamp;pressure;altitude;pressure_sealevel;temperature;humidity
12594;BME280;6362;50.208;9.182;2023-03-21T00:01:04;100087.41;;;7.33;74.00
12594;BME280;6362;50.208;9.182;2023-03-21T00:03:32;100088.28;;;7.33;73.53
12594;BME280;6362;50.208;9.182;2023-03-21T00:05:59;100091.75;;;7.35;73.48
12594;BME280;6362;50.208;9.182;2023-03-21T00:08:28;100090.06;;;7.39;73.19
12594;BME280;6362;50.208;9.182;2023-03-21T00:10:59;100092.66;;;7.40;73.15
12594;BME280;6362;50.208;9.182;2023-03-21T00:13:25;100090.06;;;7.39;73.54
12594;BME280;6362;50.208;9.182;2023-03-21T00:15:52;100090.91;;;7.39;74.00
12594;BME280;6362;50.208;9.182;2023-03-21T00:18:22;100091.78;;;7.38;73.88
12594;BME280;6362;50.208;9.182;2023-03-21T00:20:56;100085.72;;;7.38;73.72
12594;BME280;6362;50.208;9.182;2023-03-21T00:23:27;100085.75;;;7.39;73.61
12594;BME280;6362;50.208;9.182;2023-03-21T00:25:53;100090.06;;;7.40;73.63
12594;BME280;6362;50.208;9.182;2023-03-21T00:28:19;100086.59;;;7.40;73.64
12594;BME280;6362;50.208;9.182;2023-03-21T00:30:44;100084.88;;;7.39;73.29
12594;BME280;6362;50.208;9.182;2023-03-21T00:33:10;100086.59;;;7.40;73.15
12594;BME280;6362;50.208;9.182;2023-03-21T00:35:38;100085.75;;;7.41;73.00
12594;BME280;6362;50.208;9.182;2023-03-21T00:38:08;100085.72;;;7.36;72.78
12594;BME280;6362;50.208;9.182;2023-03-21T00:40:33;100080.56;;;7.39;72.50
12594;BME280;6362;50.208;9.182;2023-03-21T00:42:58;100079.72;;;7.39;73.01
12594;BME280;6362;50.208;9.182;2023-03-21T00:45:24;100073.63;;;7.35;73.15
12594;BME280;6362;50.208;9.182;2023-03-21T00:47:49;100071.03;;;7.37;73.18
12594;BME280;6362;50.208;9.182;2023-03-21T00:50:15;100065.88;;;7.37;73.02
12594;BME280;6362;50.208;9.182;2023-03-21T00:52:40;100064.19;;;7.39;72.98
12594;BME280;6362;50.208;9.182;2023-03-21T00:55:11;100053.78;;;7.36;73.17
12594;BME280;6362;50.208;9.182;2023-03-21T00:57:37;100055.53;;;7.37;72.87
12594;BME280;6362;50.208;9.182;2023-03-21T01:00:03;100048.63;;;7.37;73.05
12594;BME280;6362;50.208;9.182;2023-03-21T01:02:31;100043.44;;;7.37;73.25
12594;BME280;6362;50.208;9.182;2023-03-21T01:04:57;100045.22;;;7.40;73.37
12594;BME280;6362;50.208;9.182;2023-03-21T01:07:22;100048.63;;;7.33;73.76
12594;BME280;6362;50.208;9.182;2023-03-21T01:09:48;100038.28;;;7.33;73.68
12594;BME280;6362;50.208;9.182;2023-03-21T01:12:13;100035.66;;;7.31;73.84
12594;BME280;6362;50.208;9.182;2023-03-21T01:14:38;100033.94;;;7.32;73.58
12594;BME280;6362;50.208;9.182;2023-03-21T01:17:04;100040.84;;;7.33;73.56
12594;BME280;6362;50.208;9.182;2023-03-21T01:19:30;100033.09;;;7.33;73.59
12594;BME280;6362;50.208;9.182;2023-03-21T01:21:56;100031.34;;;7.30;73.59
12594;BME280;6362;50.208;9.182;2023-03-21T01:24:21;100037.38;;;7.28;74.74
12594;BME280;6362;50.208;9.182;2023-03-21T01:26:47;100041.63;;;7.26;74.39
12594;BME280;6362;50.208;9.182;2023-03-21T01:29:12;100038.19;;;7.25;74.28
12594;BME280;6362;50.208;9.182;2023-03-21T01:31:38;100045.09;;;7.26;74.23
12594;BME280;6362;50.208;9.182;2023-03-21T01:34:03;100048.53;;;7.27;73.98
12594;BME280;6362;50.208;9.182;2023-03-21T01:36:29;100042.53;;;7.28;73.92
12594;BME280;6362;50.208;9.182;2023-03-21T01:38:55;100045.13;;;7.31;73.66
12594;BME280;6362;50.208;9.182;2023-03-21T01:41:27;100042.59;;;7.35;73.65
12594;BME280;6362;50.208;9.182;2023-03-21T01:43:53;100040.84;;;7.36;72.97
12594;BME280;6362;50.208;9.182;2023-03-21T01:46:41;100031.41;;;7.39;72.27
12594;BME280;6362;50.208;9.182;2023-03-21T01:49:14;100032.28;;;7.43;72.24
12594;BME280;6362;50.208;9.182;2023-03-21T01:51:44;100033.19;;;7.47;72.54
12594;BME280;6362;50.208;9.182;2023-03-21T01:54:14;100033.19;;;7.47;72.27
12594;BME280;6362;50.208;9.182;2023-03-21T01:56:42;100031.44;;;7.47;72.12
12594;BME280;6362;50.208;9.182;2023-03-21T01:59:15;100022.84;;;7.51;72.46
12594;BME280;6362;50.208;9.182;2023-03-21T02:01:46;100019.38;;;7.45;72.64
12594;BME280;6362;50.208;9.182;2023-03-21T02:04:13;100020.28;;;7.50;72.44
12594;BME280;6362;50.208;9.182;2023-03-21T02:06:48;100019.38;;;7.49;72.29
12594;BME280;6362;50.208;9.182;2023-03-21T02:09:20;100008.16;;;7.49;72.51
12594;BME280;6362;50.208;9.182;2023-03-21T02:11:48;100010.78;;;7.50;72.64
12594;BME280;6362;50.208;9.182;2023-03-21T02:14:16;100003.84;;;7.48;72.48
12594;BME280;6362;50.208;9.182;2023-03-21T02:28:28;99989.16;;;7.40;73.57
12594;BME280;6362;50.208;9.182;2023-03-21T02:36:47;99987.41;;;7.36;73.60
12594;BME280;6362;50.208;9.182;2023-03-21T02:39:19;99984.81;;;7.35;73.53
12594;BME280;6362;50.208;9.182;2023-03-21T02:41:49;99989.91;;;7.27;74.03
12594;BME280;6362;50.208;9.182;2023-03-21T02:52:35;99989.00;;;7.19;74.57
12594;BME280;6362;50.208;9.182;2023-03-21T02:55:03;99976.94;;;7.21;74.60
12594;BME280;6362;50.208;9.182;2023-03-21T02:57:30;99984.69;;;7.20;74.70
12594;BME280;6362;50.208;9.182;2023-03-21T02:59:57;99985.56;;;7.17;74.42
12594;BME280;6362;50.208;9.182;2023-03-21T03:02:26;99968.28;;;7.14;74.57
12594;BME280;6362;50.208;9.182;2023-03-21T03:04:52;99983.78;;;7.11;74.80
12594;BME280;6362;50.208;9.182;2023-03-21T03:10:34;99976.81;;;7.04;74.63
12594;BME280;6362;50.208;9.182;2023-03-21T03:15:48;99966.44;;;6.95;74.79
12594;BME280;6362;50.208;9.182;2023-03-21T03:18:23;99971.59;;;6.95;74.01
12594;BME280;6362;50.208;9.182;2023-03-21T03:24:00;99971.53;;;6.87;74.35
12594;BME280;6362;50.208;9.182;2023-03-21T03:26:35;99966.34;;;6.84;74.67
12594;BME280;6362;50.208;9.182;2023-03-21T03:29:10;99969.78;;;6.83;74.58
12594;BME280;6362;50.208;9.182;2023-03-21T03:31:45;99969.84;;;6.90;74.64
12594;BME280;6362;50.208;9.182;2023-03-21T03:34:15;99973.28;;;6.92;74.50
12594;BME280;6362;50.208;9.182;2023-03-21T03:36:46;99968.94;;;6.86;74.90
12594;BME280;6362;50.208;9.182;2023-03-21T03:39:16;99965.47;;;6.85;75.13
12594;BME280;6362;50.208;9.182;2023-03-21T03:41:51;99966.34;;;6.83;75.05
12594;BME280;6362;50.208;9.182;2023-03-21T03:44:18;99966.31;;;6.81;75.22
12594;BME280;6362;50.208;9.182;2023-03-21T03:46:47;99967.16;;;6.79;75.22
12594;BME280;6362;50.208;9.182;2023-03-21T03:49:24;99967.13;;;6.77;75.67
12594;BME280;6362;50.208;9.182;2023-03-21T03:52:05;99961.94;;;6.76;75.76
12594;BME280;6362;50.208;9.182;2023-03-21T03:54:38;99959.38;;;6.76;75.77
12594;BME280;6362;50.208;9.182;2023-03-21T03:57:06;99964.53;;;6.76;75.79
12594;BME280;6362;50.208;9.182;2023-03-21T03:59:35;99960.22;;;6.75;75.76
12594;BME280;6362;50.208;9.182;2023-03-21T04:02:01;99965.41;;;6.75;75.95
12594;BME280;6362;50.208;9.182;2023-03-21T04:04:27;99965.41;;;6.76;76.06
12594;BME280;6362;50.208;9.182;2023-03-21T04:06:53;99958.53;;;6.80;75.92
12594;BME280;6362;50.208;9.182;2023-03-21T04:09:18;99964.56;;;6.79;75.97
12594;BME280;6362;50.208;9.182;2023-03-21T04:11:43;99962.00;;;6.79;76.20
12594;BME280;6362;50.208;9.182;2023-03-21T04:14:09;99964.53;;;6.77;76.07
12594;BME280;6362;50.208;9.182;2023-03-21T04:16:34;99955.06;;;6.76;76.50
12594;BME280;6362;50.208;9.182;2023-03-21T04:19:00;99959.38;;;6.76;76.58
12594;BME280;6362;50.208;9.182;2023-03-21T04:21:26;99955.06;;;6.76;76.29
12594;BME280;6362;50.208;9.182;2023-03-21T04:23:53;99960.19;;;6.72;76.53
12594;BME280;6362;50.208;9.182;2023-03-21T04:26:22;99955.91;;;6.72;76.10
12594;BME280;6362;50.208;9.182;2023-03-21T04:28:49;99950.69;;;6.69;76.35
12594;BME280;6362;50.208;9.182;2023-03-21T04:31:14;99940.31;;;6.65;76.38
12594;BME280;6362;50.208;9.182;2023-03-21T04:33:41;99950.66;;;6.63;76.48
12594;BME280;6362;50.208;9.182;2023-03-21T04:36:08;99949.75;;;6.56;76.33
12594;BME280;6362;50.208;9.182;2023-03-21T04:38:34;99949.69;;;6.53;76.67
12594;BME280;6362;50.208;9.182;2023-03-21T04:41:00;99949.69;;;6.52;76.49
12594;BME280;6362;50.208;9.182;2023-03-21T04:43:26;99951.38;;;6.45;76.62
12594;BME280;6362;50.208;9.182;2023-03-21T04:45:53;99955.63;;;6.42;76.08
12594;BME280;6362;50.208;9.182;2023-03-21T04:48:19;99959.00;;;6.34;76.81
12594;BME280;6362;50.208;9.182;2023-03-21T04:50:49;99952.06;;;6.29;76.61
12594;BME280;6362;50.208;9.182;2023-03-21T04:53:14;99952.88;;;6.26;76.71
12594;BME280;6362;50.208;9.182;2023-03-21T04:55:40;99945.06;;;6.19;76.55
12594;BME280;6362;50.208;9.182;2023-03-21T04:58:05;99950.16;;;6.11;76.57
12594;BME280;6362;50.208;9.182;2023-03-21T05:00:31;99943.22;;;6.08;76.50
12594;BME280;6362;50.208;9.182;2023-03-21T05:03:02;99944.94;;;6.06;76.71
12594;BME280;6362;50.208;9.182;2023-03-21T05:05:29;99941.44;;;6.01;76.73
12594;BME280;6362;50.208;9.182;2023-03-21T05:07:56;99933.63;;;5.95;77.07
12594;BME280;6362;50.208;9.182;2023-03-21T05:10:21;99937.06;;;5.94;77.33
12594;BME280;6362;50.208;9.182;2023-03-21T05:12:46;99942.19;;;5.93;77.09
12594;BME280;6362;50.208;9.182;2023-03-21T05:15:12;99941.28;;;5.91;77.13
12594;BME280;6362;50.208;9.182;2023-03-21T05:17:37;99939.56;;;5.90;77.47
12594;BME280;6362;50.208;9.182;2023-03-21T05:20:03;99938.69;;;5.89;77.14
12594;BME280;6362;50.208;9.182;2023-03-21T05:22:29;99935.25;;;5.90;77.37
12594;BME280;6362;50.208;9.182;2023-03-21T05:25:07;99948.16;;;5.90;77.19
12594;BME280;6362;50.208;9.182;2023-03-21T05:27:33;99949.94;;;5.91;77.29
12594;BME280;6362;50.208;9.182;2023-03-21T05:32:28;99942.19;;;5.91;77.66
12594;BME280;6362;50.208;9.182;2023-03-21T05:34:53;99950.84;;;5.98;77.33
12594;BME280;6362;50.208;9.182;2023-03-21T05:37:19;99940.53;;;5.95;77.51
12594;BME280;6362;50.208;9.182;2023-03-21T05:39:45;99937.09;;;5.99;77.69
12594;BME280;6362;50.208;9.182;2023-03-21T05:42:10;99935.44;;;6.02;77.42
12594;BME280;6362;50.208;9.182;2023-03-21T05:44:36;99942.38;;;6.06;77.26
12594;BME280;6362;50.208;9.182;2023-03-21T05:47:02;99941.53;;;6.11;77.19
12594;BME280;6362;50.208;9.182;2023-03-21T05:49:30;99936.41;;;6.12;76.88
12594;BME280;6362;50.208;9.182;2023-03-21T05:51:55;99951.03;;;6.15;77.57
12594;BME280;6362;50.208;9.182;2023-03-21T05:54:21;99945.94;;;6.18;77.32
12594;BME280;6362;50.208;9.182;2023-03-21T05:56:46;99949.38;;;6.20;77.79
12594;BME280;6362;50.208;9.182;2023-03-21T05:59:12;99953.72;;;6.24;77.60
12594;BME280;6362;50.208;9.182;2023-03-21T06:01:37;99939.97;;;6.26;77.30
12594;BME280;6362;50.208;9.182;2023-03-21T06:04:03;99948.63;;;6.28;77.35
12594;BME280;6362;50.208;9.182;2023-03-21T06:06:28;99945.22;;;6.34;77.01
12594;BME280;6362;50.208;9.182;2023-03-21T06:08:53;99946.09;;;6.34;76.92
12594;BME280;6362;50.208;9.182;2023-03-21T06:11:23;99943.56;;;6.44;76.35
12594;BME280;6362;50.208;9.182;2023-03-21T06:13:50;99945.38;;;6.52;75.03
12594;BME280;6362;50.208;9.182;2023-03-21T06:16:15;99929.06;;;6.58;74.49
12594;BME280;6362;50.208;9.182;2023-03-21T06:18:41;99935.19;;;6.71;74.11
12594;BME280;6362;50.208;9.182;2023-03-21T06:21:06;99933.56;;;6.79;73.80
12594;BME280;6362;50.208;9.182;2023-03-21T06:23:32;99935.38;;;6.89;73.49
12594;BME280;6362;50.208;9.182;2023-03-21T06:25:57;99941.44;;;6.99;73.46
12594;BME280;6362;50.208;9.182;2023-03-21T06:28:22;99945.88;;;7.13;74.32
12594;BME280;6362;50.208;9.182;2023-03-21T06:30:48;99942.38;;;7.10;74.61
12594;BME280;6362;50.208;9.182;2023-03-21T06:33:13;99944.13;;;7.11;74.63
12594;BME280;6362;50.208;9.182;2023-03-21T06:35:39;99946.66;;;7.03;74.43
12594;BME280;6362;50.208;9.182;2023-03-21T06:38:04;99944.97;;;7.08;74.41
12594;BME280;6362;50.208;9.182;2023-03-21T06:40:30;99953.59;;;7.10;74.62
12594;BME280;6362;50.208;9.182;2023-03-21T06:42:55;99950.16;;;7.13;74.16
12594;BME280;6362;50.208;9.182;2023-03-21T06:45:20;99957.09;;;7.20;73.83
12594;BME280;6362;50.208;9.182;2023-03-21T06:47:46;99958.94;;;7.33;73.50
12594;BME280;6362;50.208;9.182;2023-03-21T06:50:11;99966.78;;;7.53;73.09
12594;BME280;6362;50.208;9.182;2023-03-21T06:52:37;99961.72;;;7.76;72.08
12594;BME280;6362;50.208;9.182;2023-03-21T06:55:02;99966.13;;;8.03;71.13
12594;BME280;6362;50.208;9.182;2023-03-21T06:57:28;99967.91;;;8.19;70.44
12594;BME280;6362;50.208;9.182;2023-03-21T06:59:53;99968.81;;;8.31;69.62
12594;BME280;6362;50.208;9.182;2023-03-21T07:02:19;99968.00;;;8.41;69.08
12594;BME280;6362;50.208;9.182;2023-03-21T07:04:44;99970.59;;;8.49;68.95
12594;BME280;6362;50.208;9.182;2023-03-21T07:07:10;99965.41;;;8.53;68.47
12594;BME280;6362;50.208;9.182;2023-03-21T07:09:35;99960.25;;;8.56;67.80
12594;BME280;6362;50.208;9.182;2023-03-21T07:12:01;99965.44;;;8.65;67.69
12594;BME280;6362;50.208;9.182;2023-03-21T07:14:26;99962.84;;;8.68;65.59
12594;BME280;6362;50.208;9.182;2023-03-21T07:16:51;99967.16;;;8.76;64.60
12594;BME280;6362;50.208;9.182;2023-03-21T07:19:17;99963.72;;;8.80;63.70
12594;BME280;6362;50.208;9.182;2023-03-21T07:21:42;99966.31;;;8.78;63.91
12594;BME280;6362;50.208;9.182;2023-03-21T07:24:08;99971.47;;;8.83;64.23
12594;BME280;6362;50.208;9.182;2023-03-21T07:26:33;99964.59;;;8.95;63.84
12594;BME280;6362;50.208;9.182;2023-03-21T07:28:58;99967.16;;;8.97;63.18
12594;BME280;6362;50.208;9.182;2023-03-21T07:31:24;99959.38;;;9.05;63.21
12594;BME280;6362;50.208;9.182;2023-03-21T07:33:51;99963.69;;;9.15;63.02
12594;BME280;6362;50.208;9.182;2023-03-21T07:36:17;99964.53;;;9.29;62.59
12594;BME280;6362;50.208;9.182;2023-03-21T07:38:43;99955.84;;;9.47;62.61
12594;BME280;6362;50.208;9.182;2023-03-21T07:41:09;99951.44;;;9.66;62.05
12594;BME280;6362;50.208;9.182;2023-03-21T07:43:35;99960.94;;;9.84;62.33
12594;BME280;6362;50.208;9.182;2023-03-21T07:46:00;99959.94;;;10.08;62.40
12594;BME280;6362;50.208;9.182;2023-03-21T07:48:27;99958.16;;;10.23;61.42
12594;BME280;6362;50.208;9.182;2023-03-21T07:50:52;99956.31;;;10.44;60.85
12594;BME280;6362;50.208;9.182;2023-03-21T07:53:18;99955.28;;;10.66;60.47
12594;BME280;6362;50.208;9.182;2023-03-21T07:55:48;99960.31;;;10.89;60.10
12594;BME280;6362;50.208;9.182;2023-03-21T07:58:14;99941.94;;;11.06;58.79
12594;BME280;6362;50.208;9.182;2023-03-21T08:00:39;99943.53;;;11.19;58.87
12594;BME280;6362;50.208;9.182;2023-03-21T08:03:06;99940.91;;;11.22;57.77
12594;BME280;6362;50.208;9.182;2023-03-21T08:05:36;99936.44;;;11.33;57.33
12594;BME280;6362;50.208;9.182;2023-03-21T08:08:02;99943.28;;;11.42;57.89
12594;BME280;6362;50.208;9.182;2023-03-21T08:10:29;99945.81;;;11.50;56.74
12594;BME280;6362;50.208;9.182;2023-03-21T08:12:54;99936.22;;;11.55;57.01
12594;BME280;6362;50.208;9.182;2023-03-21T08:15:20;99942.25;;;11.57;56.43
12594;BME280;6362;50.208;9.182;2023-03-21T08:17:45;99946.47;;;11.69;57.75
12594;BME280;6362;50.208;9.182;2023-03-21T08:20:14;99943.94;;;11.62;56.05
12594;BME280;6362;50.208;9.182;2023-03-21T08:22:41;99936.00;;;11.73;56.18
12594;BME280;6362;50.208;9.182;2023-03-21T08:25:08;99935.91;;;11.84;55.76
12594;BME280;6362;50.208;9.182;2023-03-21T08:27:35;99941.56;;;12.13;55.52
12594;BME280;6362;50.208;9.182;2023-03-21T08:30:00;99936.25;;;12.23;55.03
12594;BME280;6362;50.208;9.182;2023-03-21T08:32:26;99938.50;;;12.46;53.99
12594;BME280;6362;50.208;9.182;2023-03-21T08:35:00;99939.94;;;12.65;52.96
12594;BME280;6362;50.208;9.182;2023-03-21T08:37:26;99935.91;;;12.98;53.68
12594;BME280;6362;50.208;9.182;2023-03-21T08:39:52;99939.19;;;13.09;51.71
12594;BME280;6362;50.208;9.182;2023-03-21T08:42:19;99943.56;;;13.10;51.57
12594;BME280;6362;50.208;9.182;2023-03-21T08:44:46;99933.47;;;12.87;51.61
12594;BME280;6362;50.208;9.182;2023-03-21T08:47:12;99935.25;;;12.85;52.80
12594;BME280;6362;50.208;9.182;2023-03-21T08:49:37;99936.47;;;13.17;51.71
12594;BME280;6362;50.208;9.182;2023-03-21T08:52:03;99938.84;;;13.31;51.11
12594;BME280;6362;50.208;9.182;2023-03-21T08:54:30;99937.16;;;13.27;51.17
12594;BME280;6362;50.208;9.182;2023-03-21T08:56:55;99927.28;;;13.44;50.91
12594;BME280;6362;50.208;9.182;2023-03-21T08:59:21;99933.22;;;13.52;50.61
12594;BME280;6362;50.208;9.182;2023-03-21T09:01:46;99927.53;;;13.75;50.60
12594;BME280;6362;50.208;9.182;2023-03-21T09:04:12;99928.47;;;13.71;50.16
12594;BME280;6362;50.208;9.182;2023-03-21T09:06:38;99936.13;;;13.80;49.67
12594;BME280;6362;50.208;9.182;2023-03-21T09:09:10;99927.34;;;13.84;49.68
12594;BME280;6362;50.208;9.182;2023-03-21T09:11:35;99940.91;;;14.02;48.96
12594;BME280;6362;50.208;9.182;2023-03-21T09:14:00;99936.84;;;13.88;48.94
12594;BME280;6362;50.208;9.182;2023-03-21T09:16:26;99933.97;;;13.99;49.25
12594;BME280;6362;50.208;9.182;2023-03-21T09:18:52;99934.97;;;13.93;49.22
12594;BME280;6362;50.208;9.182;2023-03-21T09:21:20;99931.97;;;13.70;50.26
12594;BME280;6362;50.208;9.182;2023-03-21T09:23:47;99926.59;;;13.34;50.79
12594;BME280;6362;50.208;9.182;2023-03-21T09:26:17;99929.88;;;12.96;51.62
12594;BME280;6362;50.208;9.182;2023-03-21T09:28:43;99933.28;;;13.00;52.29
12594;BME280;6362;50.208;9.182;2023-03-21T09:31:11;99925.56;;;12.92;52.32
12594;BME280;6362;50.208;9.182;2023-03-21T09:33:38;99921.97;;;12.99;52.32
12594;BME280;6362;50.208;9.182;2023-03-21T09:36:08;99920.00;;;13.12;52.52
12594;BME280;6362;50.208;9.182;2023-03-21T09:38:42;99925.88;;;13.26;51.85
12594;BME280;6362;50.208;9.182;2023-03-21T09:47:03;99919.09;;;13.14;52.03
12594;BME280;6362;50.208;9.182;2023-03-21T09:49:33;99921.50;;;13.28;52.09
12594;BME280;6362;50.208;9.182;2023-03-21T09:52:01;99925.00;;;13.27;52.10
12594;BME280;6362;50.208;9.182;2023-03-21T09:54:34;99929.56;;;13.13;53.06
12594;BME280;6362;50.208;9.182;2023-03-21T09:57:37;99922.06;;;13.44;52.85
12594;BME280;6362;50.208;9.182;2023-03-21T10:00:10;99921.88;;;13.53;52.12
12594;BME280;6362;50.208;9.182;2023-03-21T10:02:47;99921.66;;;13.64;51.78
12594;BME280;6362;50.208;9.182;2023-03-21T10:05:20;99921.13;;;13.46;52.40
12594;BME280;6362;50.208;9.182;2023-03-21T10:08:13;99920.19;;;13.49;52.68
12594;BME280;6362;50.208;9.182;2023-03-21T10:10:45;99911.03;;;13.28;52.70
12594;BME280;6362;50.208;9.182;2023-03-21T10:13:15;99923.44;;;13.14;53.47
12594;BME280;6362;50.208;9.182;2023-03-21T10:15:43;99921.41;;;13.33;53.88
12594;BME280;6362;50.208;9.182;2023-03-21T10:18:18;99911.63;;;13.42;53.04
12594;BME280;6362;50.208;9.182;2023-03-21T10:20:45;99915.34;;;13.31;53.03
12594;BME280;6362;50.208;9.182;2023-03-21T10:23:15;99918.31;;;13.11;53.95
12594;BME280;6362;50.208;9.182;2023-03-21T10:25:54;99920.13;;;13.06;54.02
12594;BME280;6362;50.208;9.182;2023-03-21T10:28:26;99914.94;;;13.03;54.32
12594;BME280;6362;50.208;9.182;2023-03-21T10:30:57;99919.13;;;13.13;53.68
12594;BME280;6362;50.208;9.182;2023-03-21T10:33:26;99921.59;;;13.22;53.61
12594;BME280;6362;50.208;9.182;2023-03-21T10:36:07;99914.63;;;13.23;54.17
12594;BME280;6362;50.208;9.182;2023-03-21T10:38:34;99915.72;;;13.08;54.17
12594;BME280;6362;50.208;9.182;2023-03-21T10:41:00;99911.59;;;12.96;53.76
12594;BME280;6362;50.208;9.182;2023-03-21T10:45:51;99903.31;;;13.22;53.96
12594;BME280;6362;50.208;9.182;2023-03-21T10:48:17;99903.81;;;13.41;53.48
12594;BME280;6362;50.208;9.182;2023-03-21T10:50:46;99902.88;;;13.43;52.58
12594;BME280;6362;50.208;9.182;2023-03-21T10:53:19;99902.06;;;13.41;52.14
12594;BME280;6362;50.208;9.182;2023-03-21T10:55:55;99899.47;;;13.41;52.93
12594;BME280;6362;50.208;9.182;2023-03-21T10:58:25;99894.31;;;13.38;52.36
12594;BME280;6362;50.208;9.182;2023-03-21T11:00:57;99894.28;;;13.40;52.72
12594;BME280;6362;50.208;9.182;2023-03-21T11:05:52;99898.63;;;13.39;51.81
12594;BME280;6362;50.208;9.182;2023-03-21T11:08:20;99892.59;;;13.36;52.32
12594;BME280;6362;50.208;9.182;2023-03-21T11:13:25;99896.03;;;13.39;52.27
12594;BME280;6362;50.208;9.182;2023-03-21T11:15:57;99899.63;;;13.32;53.01
12594;BME280;6362;50.208;9.182;2023-03-21T11:18:30;99891.00;;;13.29;53.97
12594;BME280;6362;50.208;9.182;2023-03-21T11:21:04;99901.97;;;12.98;55.56
12594;BME280;6362;50.208;9.182;2023-03-21T11:23:32;99901.16;;;12.96;55.92
12594;BME280;6362;50.208;9.182;2023-03-21T11:26:00;99898.75;;;12.84;55.42
12594;BME280;6362;50.208;9.182;2023-03-21T11:28:35;99890.91;;;12.85;55.62
12594;BME280;6362;50.208;9.182;2023-03-21T11:31:02;99895.16;;;12.91;55.99
12594;BME280;6362;50.208;9.182;2023-03-21T11:33:54;99893.25;;;13.01;56.25
12594;BME280;6362;50.208;9.182;2023-03-21T11:38:52;99888.41;;;13.29;55.87
12594;BME280;6362;50.208;9.182;2023-03-21T11:41:28;99883.03;;;13.35;54.46
12594;BME280;6362;50.208;9.182;2023-03-21T11:43:54;99886.28;;;13.47;54.16
12594;BME280;6362;50.208;9.182;2023-03-21T11:46:25;99893.41;;;13.39;53.42
12594;BME280;6362;50.208;9.182;2023-03-21T11:48:51;99882.56;;;13.13;54.11
12594;BME280;6362;50.208;9.182;2023-03-21T11:56:31;99879.50;;;13.39;54.17
12594;BME280;6362;50.208;9.182;2023-03-21T12:04:37;99871.31;;;13.09;56.50
12594;BME280;6362;50.208;9.182;2023-03-21T12:12:49;99869.91;;;12.91;57.18
12594;BME280;6362;50.208;9.182;2023-03-21T12:15:24;99873.03;;;12.62;58.62
12594;BME280;6362;50.208;9.182;2023-03-21T12:23:19;99858.19;;;12.64;60.03
12594;BME280;6362;50.208;9.182;2023-03-21T12:34:38;99858.38;;;12.54;60.79
12594;BME280;6362;50.208;9.182;2023-03-21T12:45:43;99847.00;;;12.05;64.18
12594;BME280;6362;50.208;9.182;2023-03-21T12:48:19;99844.47;;;11.98;64.10
12594;BME280;6362;50.208;9.182;2023-03-21T12:50:48;99848.28;;;11.74;65.28
12594;BME280;6362;50.208;9.182;2023-03-21T12:55:44;99842.88;;;11.87;66.55
12594;BME280;6362;50.208;9.182;2023-03-21T12:58:19;99844.63;;;11.88;66.15
12594;BME280;6362;50.208;9.182;2023-03-21T13:00:50;99850.63;;;11.94;66.20
12594;BME280;6362;50.208;9.182;2023-03-21T13:03:21;99855.22;;;11.73;67.79
12594;BME280;6362;50.208;9.182;2023-03-21T13:05:52;99852.56;;;11.76;67.77
12594;BME280;6362;50.208;9.182;2023-03-21T13:10:49;99851.34;;;11.39;70.17
12594;BME280;6362;50.208;9.182;2023-03-21T13:14:25;99847.75;;;11.47;70.36
12594;BME280;6362;50.208;9.182;2023-03-21T13:18:48;99839.31;;;11.25;70.79
12594;BME280;6362;50.208;9.182;2023-03-21T13:24:03;99833.38;;;11.17;71.87
12594;BME280;6362;50.208;9.182;2023-03-21T13:26:50;99838.63;;;11.13;70.57
12594;BME280;6362;50.208;9.182;2023-03-21T13:29:27;99828.41;;;10.93;69.56
12594;BME280;6362;50.208;9.182;2023-03-21T13:31:55;99822.34;;;10.95;68.80
12594;BME280;6362;50.208;9.182;2023-03-21T13:34:24;99836.19;;;10.97;67.37
12594;BME280;6362;50.208;9.182;2023-03-21T13:36:51;99834.28;;;11.13;66.39
12594;BME280;6362;50.208;9.182;2023-03-21T13:39:27;99826.44;;;11.16;67.08
12594;BME280;6362;50.208;9.182;2023-03-21T13:41:59;99816.16;;;11.05;67.31
12594;BME280;6362;50.208;9.182;2023-03-21T13:44:45;99822.06;;;11.18;67.66
12594;BME280;6362;50.208;9.182;2023-03-21T13:50:19;99816.78;;;11.24;67.10
12594;BME280;6362;50.208;9.182;2023-03-21T13:55:34;99809.06;;;11.15;68.01
12594;BME280;6362;50.208;9.182;2023-03-21T13:58:23;99810.19;;;10.96;68.21
12594;BME280;6362;50.208;9.182;2023-03-21T14:01:32;99804.22;;;10.84;69.42
12594;BME280;6362;50.208;9.182;2023-03-21T14:09:04;99807.13;;;10.57;70.95
12594;BME280;6362;50.208;9.182;2023-03-21T14:11:31;99804.59;;;10.46;71.37
12594;BME280;6362;50.208;9.182;2023-03-21T14:13:59;99802.00;;;10.48;72.15
12594;BME280;6362;50.208;9.182;2023-03-21T14:16:26;99794.16;;;10.51;72.24
12594;BME280;6362;50.208;9.182;2023-03-21T14:19:00;99797.66;;;10.47;75.73
12594;BME280;6362;50.208;9.182;2023-03-21T14:21:30;99794.19;;;10.48;74.57
12594;BME280;6362;50.208;9.182;2023-03-21T14:24:10;99794.19;;;10.49;74.74
12594;BME280;6362;50.208;9.182;2023-03-21T14:26:44;99778.56;;;10.52;74.59
12594;BME280;6362;50.208;9.182;2023-03-21T14:29:31;99785.47;;;10.55;75.36
12594;BME280;6362;50.208;9.182;2023-03-21T14:31:58;99783.78;;;10.49;75.16
12594;BME280;6362;50.208;9.182;2023-03-21T14:34:26;99787.25;;;10.50;75.28
12594;BME280;6362;50.208;9.182;2023-03-21T14:36:52;99784.69;;;10.45;75.54
12594;BME280;6362;50.208;9.182;2023-03-21T14:39:20;99788.16;;;10.43;75.78
12594;BME280;6362;50.208;9.182;2023-03-21T14:41:59;99788.19;;;10.44;76.35
12594;BME280;6362;50.208;9.182;2023-03-21T14:44:31;99778.72;;;10.32;76.03
12594;BME280;6362;50.208;9.182;2023-03-21T14:47:15;99781.34;;;10.31;75.90
12594;BME280;6362;50.208;9.182;2023-03-21T14:49:41;99775.34;;;10.27;76.82
12594;BME280;6362;50.208;9.182;2023-03-21T14:52:10;99770.13;;;10.27;76.63
12594;BME280;6362;50.208;9.182;2023-03-21T14:54:39;99762.34;;;10.23;78.46
12594;BME280;6362;50.208;9.182;2023-03-21T14:57:10;99750.13;;;10.34;75.36
12594;BME280;6362;50.208;9.182;2023-03-21T14:59:38;99754.56;;;10.24;75.60
12594;BME280;6362;50.208;9.182;2023-03-21T15:02:18;99748.53;;;10.16;76.26
12594;BME280;6362;50.208;9.182;2023-03-21T15:04:48;99745.06;;;10.14;77.63
12594;BME280;6362;50.208;9.182;2023-03-21T15:07:30;99748.56;;;10.12;78.55
12594;BME280;6362;50.208;9.182;2023-03-21T15:09:59;99745.13;;;10.11;79.89
12594;BME280;6362;50.208;9.182;2023-03-21T15:12:28;99733.00;;;10.09;79.68
12594;BME280;6362;50.208;9.182;2023-03-21T15:14:54;99728.69;;;10.04;79.40
12594;BME280;6362;50.208;9.182;2023-03-21T15:17:20;99725.25;;;10.02;78.95